Nortonville, Illinois
Current Conditions -  °F | °C
As of 4:15 PM on Sunday 23 Nov 2014 (Local Time) from KIJX Reporting Station
Light Rain Light Rain  
Wind Chill: 53°   Ceiling: 600
Heat Index: 53°   Visibility: 7mi
Dew Point: 51°   Wind: 3mph
Humidity: 93%   Direction: 130°SE
Pressure: 29.34"   Gusts: NA
Location:  39.5633°N, 90.2043°W
Report Text: KIJX 232215Z AUTO 13003KT 7SM -RA OVC006 12/11 A2934 RMK AO2 P0002 T01180107
Loading
Personal Weather Stations






























Interactive Weather Map New forecast layout! Learn more

10-Day Weather Forecast

Advertisements
Track Severe Weather on mobile